LLHA/HFA METAR and TAF weather

Enter ICAO airport designator
Station Type Date Time Source
LLHA METAR 2019/08/22 04:50 UTC NOAA

LLHA 220450Z 14004KT 9999 FEW025 26/21 Q1010


Station Type Date Time Source
LLHA Decoded METAR 2019/08/22 04:50 UTC NOAA

Station name not available
Aug 22, 2019 - 12:50 AM EDT / 2019.08.22 0450 UTC
Wind: from the SE (140 degrees) at 5 MPH (4 KT):0
Visibility: greater than 7 mile(s):0
Sky conditions: mostly clear
Temperature: 78 F (26 C)
Dew Point: 69 F (21 C)
Relative Humidity: 73%
Pressure (altimeter): 29.83 in. Hg (1010 hPa)
ob: LLHA 220450Z 14004KT 9999 FEW025 26/21 Q1010
cycle: 5

Station Type Date Time Source
LLHA TAF 2019/08/22 06:00 UTC NOAA

TAF LLHA 220511Z 2206/2306 32005KT 9999 FEW025
BECMG 2207/2209 32010KT FEW030
BECMG 2217/2219 32005KT SCT020 TX31/2210Z TN26/2304Z

Example: see airport list